sensor_id;sensor_type;location;lat;lon;timestamp;temperature;humidity
1786;DHT22;890;48.158;11.540;2023-03-01T00:01:48;2.90;66.00
1786;DHT22;890;48.158;11.540;2023-03-01T00:04:13;2.90;66.00
1786;DHT22;890;48.158;11.540;2023-03-01T00:06:39;2.90;66.00
1786;DHT22;890;48.158;11.540;2023-03-01T00:09:05;2.90;66.00
1786;DHT22;890;48.158;11.540;2023-03-01T00:11:32;2.90;66.20
1786;DHT22;890;48.158;11.540;2023-03-01T00:14:00;2.90;66.30
1786;DHT22;890;48.158;11.540;2023-03-01T00:16:36;2.90;66.30
1786;DHT22;890;48.158;11.540;2023-03-01T00:19:03;2.80;66.20
1786;DHT22;890;48.158;11.540;2023-03-01T00:21:29;2.80;66.20
1786;DHT22;890;48.158;11.540;2023-03-01T00:23:55;2.80;66.30
1786;DHT22;890;48.158;11.540;2023-03-01T00:26:23;2.80;66.20
1786;DHT22;890;48.158;11.540;2023-03-01T00:28:49;2.80;66.30
1786;DHT22;890;48.158;11.540;2023-03-01T00:31:17;2.80;66.30
1786;DHT22;890;48.158;11.540;2023-03-01T00:33:44;2.80;66.30
1786;DHT22;890;48.158;11.540;2023-03-01T00:36:10;2.90;66.40
1786;DHT22;890;48.158;11.540;2023-03-01T00:38:38;2.90;66.40
1786;DHT22;890;48.158;11.540;2023-03-01T00:41:09;2.90;66.30
1786;DHT22;890;48.158;11.540;2023-03-01T00:43:35;2.90;66.40
1786;DHT22;890;48.158;11.540;2023-03-01T00:46:05;2.80;66.40
1786;DHT22;890;48.158;11.540;2023-03-01T00:48:31;2.80;66.30
1786;DHT22;890;48.158;11.540;2023-03-01T00:51:03;2.80;67.10
1786;DHT22;890;48.158;11.540;2023-03-01T00:53:29;2.80;66.50
1786;DHT22;890;48.158;11.540;2023-03-01T00:55:57;2.80;66.40
1786;DHT22;890;48.158;11.540;2023-03-01T00:58:22;2.70;66.40
1786;DHT22;890;48.158;11.540;2023-03-01T01:00:48;2.70;66.50
1786;DHT22;890;48.158;11.540;2023-03-01T01:03:13;2.60;66.50
1786;DHT22;890;48.158;11.540;2023-03-01T01:05:39;2.70;66.60
1786;DHT22;890;48.158;11.540;2023-03-01T01:08:05;2.70;66.70
1786;DHT22;890;48.158;11.540;2023-03-01T01:10:33;2.70;66.80
1786;DHT22;890;48.158;11.540;2023-03-01T01:12:58;2.60;66.80
1786;DHT22;890;48.158;11.540;2023-03-01T01:15:24;2.70;66.90
1786;DHT22;890;48.158;11.540;2023-03-01T01:17:49;2.70;66.80
1786;DHT22;890;48.158;11.540;2023-03-01T01:20:15;2.70;66.80
1786;DHT22;890;48.158;11.540;2023-03-01T01:22:40;2.60;66.70
1786;DHT22;890;48.158;11.540;2023-03-01T01:25:06;2.70;66.80
1786;DHT22;890;48.158;11.540;2023-03-01T01:27:32;2.70;66.70
1786;DHT22;890;48.158;11.540;2023-03-01T01:29:57;2.60;66.80
1786;DHT22;890;48.158;11.540;2023-03-01T01:32:23;2.60;66.80
1786;DHT22;890;48.158;11.540;2023-03-01T01:34:49;2.60;67.60
1786;DHT22;890;48.158;11.540;2023-03-01T01:37:14;2.70;66.90
1786;DHT22;890;48.158;11.540;2023-03-01T01:39:40;2.80;66.90
1786;DHT22;890;48.158;11.540;2023-03-01T01:42:05;2.80;66.90
1786;DHT22;890;48.158;11.540;2023-03-01T01:44:33;2.80;66.80
1786;DHT22;890;48.158;11.540;2023-03-01T01:47:11;2.70;66.80
1786;DHT22;890;48.158;11.540;2023-03-01T01:49:50;2.80;67.00
1786;DHT22;890;48.158;11.540;2023-03-01T01:54:54;2.70;66.90
1786;DHT22;890;48.158;11.540;2023-03-01T01:57:25;2.70;66.90
1786;DHT22;890;48.158;11.540;2023-03-01T01:59:54;2.70;66.90
1786;DHT22;890;48.158;11.540;2023-03-01T02:02:21;2.70;67.00
1786;DHT22;890;48.158;11.540;2023-03-01T02:04:50;2.70;66.90
1786;DHT22;890;48.158;11.540;2023-03-01T02:07:22;2.60;67.00
1786;DHT22;890;48.158;11.540;2023-03-01T02:09:50;2.60;67.00
1786;DHT22;890;48.158;11.540;2023-03-01T02:12:19;2.60;67.00
1786;DHT22;890;48.158;11.540;2023-03-01T02:14:45;2.80;67.20
1786;DHT22;890;48.158;11.540;2023-03-01T02:17:12;2.60;67.10
1786;DHT22;890;48.158;11.540;2023-03-01T02:22:20;2.70;67.10
1786;DHT22;890;48.158;11.540;2023-03-01T02:28:31;2.60;67.10
1786;DHT22;890;48.158;11.540;2023-03-01T02:30:50;1.40;66.10
1786;DHT22;890;48.158;11.540;2023-03-01T02:33:36;2.70;67.10
1786;DHT22;890;48.158;11.540;2023-03-01T02:36:17;2.70;67.10
1786;DHT22;890;48.158;11.540;2023-03-01T02:38:44;0.00;64.50
1786;DHT22;890;48.158;11.540;2023-03-01T02:41:13;2.60;67.10
1786;DHT22;890;48.158;11.540;2023-03-01T02:43:40;2.70;67.30
1786;DHT22;890;48.158;11.540;2023-03-01T02:46:14;2.70;67.10
1786;DHT22;890;48.158;11.540;2023-03-01T02:48:51;2.70;67.10
1786;DHT22;890;48.158;11.540;2023-03-01T02:54:13;2.70;67.10
1786;DHT22;890;48.158;11.540;2023-03-01T02:56:41;2.70;67.00
1786;DHT22;890;48.158;11.540;2023-03-01T02:59:08;2.70;67.10
1786;DHT22;890;48.158;11.540;2023-03-01T03:01:34;2.60;67.00
1786;DHT22;890;48.158;11.540;2023-03-01T03:04:07;2.60;67.10
1786;DHT22;890;48.158;11.540;2023-03-01T03:06:35;2.60;67.10
1786;DHT22;890;48.158;11.540;2023-03-01T03:09:00;2.60;67.10
1786;DHT22;890;48.158;11.540;2023-03-01T03:11:26;2.50;67.00
1786;DHT22;890;48.158;11.540;2023-03-01T03:13:52;2.50;67.10
1786;DHT22;890;48.158;11.540;2023-03-01T03:16:19;2.50;67.10
1786;DHT22;890;48.158;11.540;2023-03-01T03:18:45;2.40;67.10
1786;DHT22;890;48.158;11.540;2023-03-01T03:21:12;2.40;67.10
1786;DHT22;890;48.158;11.540;2023-03-01T03:23:38;2.40;67.10
1786;DHT22;890;48.158;11.540;2023-03-01T03:26:04;4.70;69.40
1786;DHT22;890;48.158;11.540;2023-03-01T03:28:34;2.40;67.30
1786;DHT22;890;48.158;11.540;2023-03-01T03:31:00;2.40;67.30
1786;DHT22;890;48.158;11.540;2023-03-01T03:33:31;2.40;67.30
1786;DHT22;890;48.158;11.540;2023-03-01T03:35:57;2.40;67.30
1786;DHT22;890;48.158;11.540;2023-03-01T03:38:23;2.40;67.20
1786;DHT22;890;48.158;11.540;2023-03-01T03:40:52;2.30;67.10
1786;DHT22;890;48.158;11.540;2023-03-01T03:43:20;2.30;67.10
1786;DHT22;890;48.158;11.540;2023-03-01T03:45:47;2.30;67.30
1786;DHT22;890;48.158;11.540;2023-03-01T03:48:14;2.30;67.30
1786;DHT22;890;48.158;11.540;2023-03-01T03:50:40;2.30;67.20
1786;DHT22;890;48.158;11.540;2023-03-01T03:53:09;2.30;67.10
1786;DHT22;890;48.158;11.540;2023-03-01T03:55:35;2.30;67.20
1786;DHT22;890;48.158;11.540;2023-03-01T03:58:05;2.30;67.10
1786;DHT22;890;48.158;11.540;2023-03-01T04:00:39;2.30;67.20
1786;DHT22;890;48.158;11.540;2023-03-01T04:03:06;2.30;67.20
1786;DHT22;890;48.158;11.540;2023-03-01T04:05:32;2.10;67.10
1786;DHT22;890;48.158;11.540;2023-03-01T04:07:57;2.10;67.10
1786;DHT22;890;48.158;11.540;2023-03-01T04:10:53;2.10;67.10
1786;DHT22;890;48.158;11.540;2023-03-01T04:13:22;2.10;67.10
1786;DHT22;890;48.158;11.540;2023-03-01T04:15:51;2.00;67.20
1786;DHT22;890;48.158;11.540;2023-03-01T04:18:18;2.00;67.20
1786;DHT22;890;48.158;11.540;2023-03-01T04:20:45;2.00;67.20
1786;DHT22;890;48.158;11.540;2023-03-01T04:23:17;1.90;67.10
1786;DHT22;890;48.158;11.540;2023-03-01T04:25:56;1.80;67.20
1786;DHT22;890;48.158;11.540;2023-03-01T04:28:28;1.90;67.40
1786;DHT22;890;48.158;11.540;2023-03-01T04:30:55;1.90;67.40
1786;DHT22;890;48.158;11.540;2023-03-01T04:33:21;1.80;67.30
1786;DHT22;890;48.158;11.540;2023-03-01T04:35:47;1.70;67.30
1786;DHT22;890;48.158;11.540;2023-03-01T04:38:15;1.80;67.40
1786;DHT22;890;48.158;11.540;2023-03-01T04:40:41;1.80;67.60
1786;DHT22;890;48.158;11.540;2023-03-01T04:43:09;1.90;67.70
1786;DHT22;890;48.158;11.540;2023-03-01T04:45:35;1.80;67.60
1786;DHT22;890;48.158;11.540;2023-03-01T04:48:02;1.80;67.50
1786;DHT22;890;48.158;11.540;2023-03-01T04:50:28;1.80;67.50
1786;DHT22;890;48.158;11.540;2023-03-01T04:52:54;1.80;67.40
1786;DHT22;890;48.158;11.540;2023-03-01T04:55:25;1.80;67.40
1786;DHT22;890;48.158;11.540;2023-03-01T04:57:51;1.70;67.40
1786;DHT22;890;48.158;11.540;2023-03-01T05:00:18;1.70;67.30
1786;DHT22;890;48.158;11.540;2023-03-01T05:02:58;1.70;67.30
1786;DHT22;890;48.158;11.540;2023-03-01T05:05:35;1.70;67.50
1786;DHT22;890;48.158;11.540;2023-03-01T05:08:04;1.80;67.40
1786;DHT22;890;48.158;11.540;2023-03-01T05:10:31;1.70;67.30
1786;DHT22;890;48.158;11.540;2023-03-01T05:12:58;1.60;67.30
1786;DHT22;890;48.158;11.540;2023-03-01T05:15:28;1.50;67.30
1786;DHT22;890;48.158;11.540;2023-03-01T05:17:56;1.50;67.40
1786;DHT22;890;48.158;11.540;2023-03-01T05:20:24;1.50;67.50
1786;DHT22;890;48.158;11.540;2023-03-01T05:22:55;1.50;67.60
1786;DHT22;890;48.158;11.540;2023-03-01T05:25:21;1.50;67.70
1786;DHT22;890;48.158;11.540;2023-03-01T05:27:47;1.50;67.70
1786;DHT22;890;48.158;11.540;2023-03-01T05:30:14;1.50;67.60
1786;DHT22;890;48.158;11.540;2023-03-01T05:32:44;1.50;67.50
1786;DHT22;890;48.158;11.540;2023-03-01T05:35:12;1.40;67.40
1786;DHT22;890;48.158;11.540;2023-03-01T05:37:45;1.40;67.50
1786;DHT22;890;48.158;11.540;2023-03-01T05:40:13;1.50;67.70
1786;DHT22;890;48.158;11.540;2023-03-01T05:42:49;1.50;67.60
1786;DHT22;890;48.158;11.540;2023-03-01T05:45:16;1.40;67.50
1786;DHT22;890;48.158;11.540;2023-03-01T05:47:44;1.30;68.20
1786;DHT22;890;48.158;11.540;2023-03-01T05:52:39;1.30;67.50
1786;DHT22;890;48.158;11.540;2023-03-01T05:55:05;1.30;67.70
1786;DHT22;890;48.158;11.540;2023-03-01T05:57:31;1.30;67.80
1786;DHT22;890;48.158;11.540;2023-03-01T05:59:57;1.20;67.90
1786;DHT22;890;48.158;11.540;2023-03-01T06:02:22;1.20;68.00
1786;DHT22;890;48.158;11.540;2023-03-01T06:04:48;1.20;67.80
1786;DHT22;890;48.158;11.540;2023-03-01T06:07:13;1.20;67.90
1786;DHT22;890;48.158;11.540;2023-03-01T06:09:39;1.30;67.90
1786;DHT22;890;48.158;11.540;2023-03-01T06:12:05;1.30;67.90
1786;DHT22;890;48.158;11.540;2023-03-01T06:14:30;1.30;67.70
1786;DHT22;890;48.158;11.540;2023-03-01T06:16:57;1.40;67.90
1786;DHT22;890;48.158;11.540;2023-03-01T06:19:23;1.40;67.80
1786;DHT22;890;48.158;11.540;2023-03-01T06:21:49;1.40;67.80
1786;DHT22;890;48.158;11.540;2023-03-01T06:24:14;1.40;67.90
1786;DHT22;890;48.158;11.540;2023-03-01T06:26:40;1.30;67.80
1786;DHT22;890;48.158;11.540;2023-03-01T06:29:05;1.20;67.80
1786;DHT22;890;48.158;11.540;2023-03-01T06:31:31;1.20;67.90
1786;DHT22;890;48.158;11.540;2023-03-01T06:33:56;1.20;68.00
1786;DHT22;890;48.158;11.540;2023-03-01T06:36:22;1.20;68.10
1786;DHT22;890;48.158;11.540;2023-03-01T06:38:47;1.20;68.10
1786;DHT22;890;48.158;11.540;2023-03-01T06:41:13;1.20;68.10
1786;DHT22;890;48.158;11.540;2023-03-01T06:43:39;1.20;68.00
1786;DHT22;890;48.158;11.540;2023-03-01T06:46:05;1.30;68.10
1786;DHT22;890;48.158;11.540;2023-03-01T06:48:32;1.30;68.10
1786;DHT22;890;48.158;11.540;2023-03-01T06:51:00;1.30;68.10
1786;DHT22;890;48.158;11.540;2023-03-01T06:53:27;1.30;68.10
1786;DHT22;890;48.158;11.540;2023-03-01T06:55:56;1.40;68.30
1786;DHT22;890;48.158;11.540;2023-03-01T06:58:23;1.40;68.40
1786;DHT22;890;48.158;11.540;2023-03-01T07:00:48;1.40;68.30
1786;DHT22;890;48.158;11.540;2023-03-01T07:03:14;1.50;68.30
1786;DHT22;890;48.158;11.540;2023-03-01T07:05:40;1.50;68.20
1786;DHT22;890;48.158;11.540;2023-03-01T07:08:06;1.50;68.40
1786;DHT22;890;48.158;11.540;2023-03-01T07:10:31;1.50;68.30
1786;DHT22;890;48.158;11.540;2023-03-01T07:12:58;1.50;68.30
1786;DHT22;890;48.158;11.540;2023-03-01T07:15:25;1.50;68.30
1786;DHT22;890;48.158;11.540;2023-03-01T07:17:51;1.50;68.20
1786;DHT22;890;48.158;11.540;2023-03-01T07:20:20;1.60;68.50
1786;DHT22;890;48.158;11.540;2023-03-01T07:22:51;1.70;68.80
1786;DHT22;890;48.158;11.540;2023-03-01T07:25:17;1.70;68.50
1786;DHT22;890;48.158;11.540;2023-03-01T07:27:43;1.80;68.60
1786;DHT22;890;48.158;11.540;2023-03-01T07:30:09;2.00;68.60
1786;DHT22;890;48.158;11.540;2023-03-01T07:32:35;2.00;68.50
1786;DHT22;890;48.158;11.540;2023-03-01T07:35:01;1.90;68.20
1786;DHT22;890;48.158;11.540;2023-03-01T07:37:26;1.90;68.30
1786;DHT22;890;48.158;11.540;2023-03-01T07:39:52;1.90;68.40
1786;DHT22;890;48.158;11.540;2023-03-01T07:42:18;1.90;68.40
1786;DHT22;890;48.158;11.540;2023-03-01T07:44:43;1.80;68.30
1786;DHT22;890;48.158;11.540;2023-03-01T07:47:09;1.80;68.30
1786;DHT22;890;48.158;11.540;2023-03-01T07:49:34;1.80;68.40
1786;DHT22;890;48.158;11.540;2023-03-01T07:52:00;1.80;68.50
1786;DHT22;890;48.158;11.540;2023-03-01T07:54:26;1.80;68.40
1786;DHT22;890;48.158;11.540;2023-03-01T07:56:52;1.90;68.60
1786;DHT22;890;48.158;11.540;2023-03-01T07:59:17;2.00;68.60
1786;DHT22;890;48.158;11.540;2023-03-01T08:01:43;2.20;68.80
1786;DHT22;890;48.158;11.540;2023-03-01T08:04:08;2.20;68.80
1786;DHT22;890;48.158;11.540;2023-03-01T08:06:35;2.30;68.90
1786;DHT22;890;48.158;11.540;2023-03-01T08:09:01;2.40;68.70
1786;DHT22;890;48.158;11.540;2023-03-01T08:11:27;2.50;68.60
1786;DHT22;890;48.158;11.540;2023-03-01T08:13:54;2.40;68.40
1786;DHT22;890;48.158;11.540;2023-03-01T08:16:20;2.50;68.40
1786;DHT22;890;48.158;11.540;2023-03-01T08:18:46;2.50;68.20
1786;DHT22;890;48.158;11.540;2023-03-01T08:21:14;2.50;68.20
1786;DHT22;890;48.158;11.540;2023-03-01T08:23:40;2.50;68.10
1786;DHT22;890;48.158;11.540;2023-03-01T08:28:34;2.30;68.10
1786;DHT22;890;48.158;11.540;2023-03-01T08:31:00;2.30;68.20
1786;DHT22;890;48.158;11.540;2023-03-01T08:33:26;2.30;68.30
1786;DHT22;890;48.158;11.540;2023-03-01T08:35:51;2.30;68.30
1786;DHT22;890;48.158;11.540;2023-03-01T08:38:17;2.40;68.60
1786;DHT22;890;48.158;11.540;2023-03-01T08:40:42;2.40;68.50
1786;DHT22;890;48.158;11.540;2023-03-01T08:43:08;2.50;68.60
1786;DHT22;890;48.158;11.540;2023-03-01T08:45:34;2.60;68.80
1786;DHT22;890;48.158;11.540;2023-03-01T08:47:59;2.70;68.90
1786;DHT22;890;48.158;11.540;2023-03-01T08:50:25;2.80;69.10
1786;DHT22;890;48.158;11.540;2023-03-01T08:52:51;2.70;69.10
1786;DHT22;890;48.158;11.540;2023-03-01T08:55:16;3.00;69.10
1786;DHT22;890;48.158;11.540;2023-03-01T08:57:43;3.00;68.90
1786;DHT22;890;48.158;11.540;2023-03-01T09:00:10;3.10;69.00
1786;DHT22;890;48.158;11.540;2023-03-01T09:02:36;3.20;69.20
1786;DHT22;890;48.158;11.540;2023-03-01T09:05:02;5.50;71.30
1786;DHT22;890;48.158;11.540;2023-03-01T09:07:28;3.40;69.20
1786;DHT22;890;48.158;11.540;2023-03-01T09:09:54;3.50;69.00
1786;DHT22;890;48.158;11.540;2023-03-01T09:12:20;3.40;69.00
1786;DHT22;890;48.158;11.540;2023-03-01T09:14:46;3.40;68.70
1786;DHT22;890;48.158;11.540;2023-03-01T09:17:11;3.40;68.70
1786;DHT22;890;48.158;11.540;2023-03-01T09:19:37;3.40;68.40
1786;DHT22;890;48.158;11.540;2023-03-01T09:22:03;3.30;68.00
1786;DHT22;890;48.158;11.540;2023-03-01T09:24:29;3.20;68.10
1786;DHT22;890;48.158;11.540;2023-03-01T09:26:56;4.00;68.60
1786;DHT22;890;48.158;11.540;2023-03-01T09:29:22;3.30;67.80
1786;DHT22;890;48.158;11.540;2023-03-01T09:31:48;3.30;67.90
1786;DHT22;890;48.158;11.540;2023-03-01T09:34:14;3.20;67.70
1786;DHT22;890;48.158;11.540;2023-03-01T09:36:41;3.20;67.70
1786;DHT22;890;48.158;11.540;2023-03-01T09:39:07;3.30;68.10
1786;DHT22;890;48.158;11.540;2023-03-01T09:47:00;3.40;67.90
1786;DHT22;890;48.158;11.540;2023-03-01T09:49:34;3.60;68.20
1786;DHT22;890;48.158;11.540;2023-03-01T09:54:37;3.80;67.80
1786;DHT22;890;48.158;11.540;2023-03-01T09:57:11;3.80;67.70
1786;DHT22;890;48.158;11.540;2023-03-01T10:10:38;3.70;67.40
1786;DHT22;890;48.158;11.540;2023-03-01T10:13:19;3.90;67.50
1786;DHT22;890;48.158;11.540;2023-03-01T10:16:53;3.80;67.60
1786;DHT22;890;48.158;11.540;2023-03-01T10:18:58;3.80;67.80
1786;DHT22;890;48.158;11.540;2023-03-01T10:21:26;3.80;67.80
1786;DHT22;890;48.158;11.540;2023-03-01T10:23:52;3.80;67.80
1786;DHT22;890;48.158;11.540;2023-03-01T10:26:37;3.80;68.50
1786;DHT22;890;48.158;11.540;2023-03-01T10:29:07;4.20;69.60
1786;DHT22;890;48.158;11.540;2023-03-01T10:31:39;4.70;72.90
1786;DHT22;890;48.158;11.540;2023-03-01T10:34:11;5.50;77.90
1786;DHT22;890;48.158;11.540;2023-03-01T10:36:39;6.30;73.90
1786;DHT22;890;48.158;11.540;2023-03-01T10:39:12;6.60;70.00
1786;DHT22;890;48.158;11.540;2023-03-01T10:41:53;6.60;66.90
1786;DHT22;890;48.158;11.540;2023-03-01T10:44:46;7.50;72.80
1786;DHT22;890;48.158;11.540;2023-03-01T10:47:32;8.50;73.10
1786;DHT22;890;48.158;11.540;2023-03-01T10:50:04;8.50;68.00
1786;DHT22;890;48.158;11.540;2023-03-01T10:52:37;8.60;67.40
1786;DHT22;890;48.158;11.540;2023-03-01T10:55:35;9.10;72.30
1786;DHT22;890;48.158;11.540;2023-03-01T10:58:08;10.00;70.20
1786;DHT22;890;48.158;11.540;2023-03-01T11:00:52;10.60;71.40
1786;DHT22;890;48.158;11.540;2023-03-01T11:03:39;11.00;67.70
1786;DHT22;890;48.158;11.540;2023-03-01T11:08:44;11.80;68.40
1786;DHT22;890;48.158;11.540;2023-03-01T11:14:16;12.90;67.80
1786;DHT22;890;48.158;11.540;2023-03-01T11:16:45;13.70;67.60
1786;DHT22;890;48.158;11.540;2023-03-01T11:24:14;14.50;60.30
1786;DHT22;890;48.158;11.540;2023-03-01T11:26:44;14.80;59.70
1786;DHT22;890;48.158;11.540;2023-03-01T11:29:40;14.70;57.60
1786;DHT22;890;48.158;11.540;2023-03-01T11:32:11;14.40;56.10
1786;DHT22;890;48.158;11.540;2023-03-01T11:34:43;14.40;56.70
1786;DHT22;890;48.158;11.540;2023-03-01T11:37:22;14.20;55.60
1786;DHT22;890;48.158;11.540;2023-03-01T11:43:03;13.90;52.20
1786;DHT22;890;48.158;11.540;2023-03-01T11:48:37;13.70;52.60
1786;DHT22;890;48.158;11.540;2023-03-01T11:51:12;13.80;54.20
1786;DHT22;890;48.158;11.540;2023-03-01T11:54:28;14.00;52.40
1786;DHT22;890;48.158;11.540;2023-03-01T11:57:21;13.80;51.40
1786;DHT22;890;48.158;11.540;2023-03-01T12:00:24;13.50;50.00
1786;DHT22;890;48.158;11.540;2023-03-01T12:08:35;12.00;49.20
1786;DHT22;890;48.158;11.540;2023-03-01T12:27:24;13.40;49.80
1786;DHT22;890;48.158;11.540;2023-03-01T12:30:25;13.00;50.60
1786;DHT22;890;48.158;11.540;2023-03-01T12:41:09;12.40;48.90
1786;DHT22;890;48.158;11.540;2023-03-01T12:49:23;10.50;46.80
1786;DHT22;890;48.158;11.540;2023-03-01T12:52:21;9.90;47.70
1786;DHT22;890;48.158;11.540;2023-03-01T12:54:50;9.50;48.50
1786;DHT22;890;48.158;11.540;2023-03-01T12:57:46;9.10;48.20
1786;DHT22;890;48.158;11.540;2023-03-01T13:05:44;8.40;49.20
1786;DHT22;890;48.158;11.540;2023-03-01T13:08:27;8.20;49.30
1786;DHT22;890;48.158;11.540;2023-03-01T13:11:04;8.00;50.10
1786;DHT22;890;48.158;11.540;2023-03-01T13:13:31;8.10;50.20
1786;DHT22;890;48.158;11.540;2023-03-01T13:15:56;8.10;50.20
1786;DHT22;890;48.158;11.540;2023-03-01T13:20:53;8.10;50.80
1786;DHT22;890;48.158;11.540;2023-03-01T13:26:15;8.00;51.20
1786;DHT22;890;48.158;11.540;2023-03-01T13:31:56;7.90;51.20
1786;DHT22;890;48.158;11.540;2023-03-01T13:34:03;7.90;51.60
1786;DHT22;890;48.158;11.540;2023-03-01T13:39:04;7.90;52.00
1786;DHT22;890;48.158;11.540;2023-03-01T13:46:50;7.80;52.50
1786;DHT22;890;48.158;11.540;2023-03-01T13:49:20;7.80;52.60
1786;DHT22;890;48.158;11.540;2023-03-01T13:51:50;7.70;52.80
1786;DHT22;890;48.158;11.540;2023-03-01T13:54:32;7.60;53.00
1786;DHT22;890;48.158;11.540;2023-03-01T13:56:59;7.50;53.20
1786;DHT22;890;48.158;11.540;2023-03-01T13:59:25;7.60;53.10
1786;DHT22;890;48.158;11.540;2023-03-01T14:01:59;7.50;53.40
1786;DHT22;890;48.158;11.540;2023-03-01T14:04:28;7.40;53.90
1786;DHT22;890;48.158;11.540;2023-03-01T14:07:20;7.30;53.90
1786;DHT22;890;48.158;11.540;2023-03-01T14:09:54;7.20;54.40
1786;DHT22;890;48.158;11.540;2023-03-01T14:15:06;7.30;54.50
1786;DHT22;890;48.158;11.540;2023-03-01T14:22:48;7.30;54.80
1786;DHT22;890;48.158;11.540;2023-03-01T14:30:54;7.40;55.20
1786;DHT22;890;48.158;11.540;2023-03-01T14:38:31;7.40;55.30
1786;DHT22;890;48.158;11.540;2023-03-01T14:41:00;7.50;55.50
1786;DHT22;890;48.158;11.540;2023-03-01T14:43:27;7.50;55.50
1786;DHT22;890;48.158;11.540;2023-03-01T14:45:54;7.60;56.20
1786;DHT22;890;48.158;11.540;2023-03-01T14:48:21;7.50;55.80
1786;DHT22;890;48.158;11.540;2023-03-01T14:50:47;7.40;55.90
1786;DHT22;890;48.158;11.540;2023-03-01T14:53:23;7.40;56.20
1786;DHT22;890;48.158;11.540;2023-03-01T14:56:01;7.30;56.50
1786;DHT22;890;48.158;11.540;2023-03-01T14:58:32;7.30;56.50
1786;DHT22;890;48.158;11.540;2023-03-01T15:01:00;7.30;56.50
1786;DHT22;890;48.158;11.540;2023-03-01T15:03:36;7.40;56.60
1786;DHT22;890;48.158;11.540;2023-03-01T15:06:06;7.40;56.80
1786;DHT22;890;48.158;11.540;2023-03-01T15:08:33;7.40;56.70
1786;DHT22;890;48.158;11.540;2023-03-01T15:11:23;7.40;56.80
1786;DHT22;890;48.158;11.540;2023-03-01T15:13:51;7.40;57.00
1786;DHT22;890;48.158;11.540;2023-03-01T15:16:19;7.40;56.90
1786;DHT22;890;48.158;11.540;2023-03-01T15:23:55;7.50;57.40
1786;DHT22;890;48.158;11.540;2023-03-01T15:26:29;7.50;57.40
1786;DHT22;890;48.158;11.540;2023-03-01T15:28:57;7.50;57.60
1786;DHT22;890;48.158;11.540;2023-03-01T15:31:29;7.50;57.60
1786;DHT22;890;48.158;11.540;2023-03-01T15:36:53;7.40;58.00
1786;DHT22;890;48.158;11.540;2023-03-01T15:39:39;7.40;57.90
1786;DHT22;890;48.158;11.540;2023-03-01T15:42:35;7.40;58.30
1786;DHT22;890;48.158;11.540;2023-03-01T15:47:39;7.50;58.40
1786;DHT22;890;48.158;11.540;2023-03-01T15:50:26;7.50;58.30
1786;DHT22;890;48.158;11.540;2023-03-01T15:52:52;7.40;58.60
1786;DHT22;890;48.158;11.540;2023-03-01T15:55:20;7.40;58.40
1786;DHT22;890;48.158;11.540;2023-03-01T15:57:47;7.50;58.80
1786;DHT22;890;48.158;11.540;2023-03-01T16:00:14;7.50;59.00
1786;DHT22;890;48.158;11.540;2023-03-01T16:02:41;7.50;59.00
1786;DHT22;890;48.158;11.540;2023-03-01T16:05:37;7.50;59.10
1786;DHT22;890;48.158;11.540;2023-03-01T16:08:03;7.60;59.40
1786;DHT22;890;48.158;11.540;2023-03-01T16:10:30;7.50;59.20
1786;DHT22;890;48.158;11.540;2023-03-01T16:12:56;7.50;59.30
1786;DHT22;890;48.158;11.540;2023-03-01T16:15:31;7.50;59.40
1786;DHT22;890;48.158;11.540;2023-03-01T16:17:57;7.50;59.50
1786;DHT22;890;48.158;11.540;2023-03-01T16:20:27;7.50;59.70
1786;DHT22;890;48.158;11.540;2023-03-01T16:22:53;7.50;59.80
1786;DHT22;890;48.158;11.540;2023-03-01T16:25:20;7.50;60.00
1786;DHT22;890;48.158;11.540;2023-03-01T16:27:48;7.40;60.00
1786;DHT22;890;48.158;11.540;2023-03-01T16:30:16;7.40;60.10
1786;DHT22;890;48.158;11.540;2023-03-01T16:32:43;7.40;60.20
1786;DHT22;890;48.158;11.540;2023-03-01T16:35:11;7.40;60.40
1786;DHT22;890;48.158;11.540;2023-03-01T16:37:38;7.40;60.50
1786;DHT22;890;48.158;11.540;2023-03-01T16:40:06;7.40;60.40
1786;DHT22;890;48.158;11.540;2023-03-01T16:42:35;7.50;60.70
1786;DHT22;890;48.158;11.540;2023-03-01T16:45:01;7.50;60.80
1786;DHT22;890;48.158;11.540;2023-03-01T16:47:28;7.50;60.90
1786;DHT22;890;48.158;11.540;2023-03-01T16:49:54;7.50;61.00
1786;DHT22;890;48.158;11.540;2023-03-01T16:52:20;7.40;61.10
1786;DHT22;890;48.158;11.540;2023-03-01T16:54:46;7.40;61.30
1786;DHT22;890;48.158;11.540;2023-03-01T16:57:12;7.30;61.40
1786;DHT22;890;48.158;11.540;2023-03-01T16:59:38;7.30;61.50
1786;DHT22;890;48.158;11.540;2023-03-01T17:02:04;7.30;61.70
1786;DHT22;890;48.158;11.540;2023-03-01T17:04:32;7.30;61.70
1786;DHT22;890;48.158;11.540;2023-03-01T17:06:57;7.30;61.90
1786;DHT22;890;48.158;11.540;2023-03-01T17:09:23;7.20;62.10
1786;DHT22;890;48.158;11.540;2023-03-01T17:11:49;7.20;62.00
1786;DHT22;890;48.158;11.540;2023-03-01T17:14:15;7.20;62.30
1786;DHT22;890;48.158;11.540;2023-03-01T17:16:42;7.20;62.40
1786;DHT22;890;48.158;11.540;2023-03-01T17:19:08;7.10;62.60
1786;DHT22;890;48.158;11.540;2023-03-01T17:21:34;7.10;62.80
1786;DHT22;890;48.158;11.540;2023-03-01T17:24:00;7.10;62.90
1786;DHT22;890;48.158;11.540;2023-03-01T17:26:26;7.10;63.10
1786;DHT22;890;48.158;11.540;2023-03-01T17:28:54;7.10;63.30
1786;DHT22;890;48.158;11.540;2023-03-01T17:31:20;7.00;63.60
1786;DHT22;890;48.158;11.540;2023-03-01T17:33:45;7.00;63.60
1786;DHT22;890;48.158;11.540;2023-03-01T17:36:11;7.00;63.80
1786;DHT22;890;48.158;11.540;2023-03-01T17:38:37;7.00;64.00
1786;DHT22;890;48.158;11.540;2023-03-01T17:41:03;6.90;64.00
1786;DHT22;890;48.158;11.540;2023-03-01T17:43:29;7.00;64.30
1786;DHT22;890;48.158;11.540;2023-03-01T17:45:56;6.90;64.30
1786;DHT22;890;48.158;11.540;2023-03-01T17:48:22;6.90;64.60
1786;DHT22;890;48.158;11.540;2023-03-01T17:50:48;6.90;64.90
1786;DHT22;890;48.158;11.540;2023-03-01T17:53:14;6.80;65.00
1786;DHT22;890;48.158;11.540;2023-03-01T17:55:42;6.80;64.90
1786;DHT22;890;48.158;11.540;2023-03-01T17:58:11;6.70;64.90
1786;DHT22;890;48.158;11.540;2023-03-01T18:00:36;6.70;64.80
1786;DHT22;890;48.158;11.540;2023-03-01T18:03:02;6.70;64.70
1786;DHT22;890;48.158;11.540;2023-03-01T18:05:31;6.60;64.60
1786;DHT22;890;48.158;11.540;2023-03-01T18:07:57;6.60;64.90
1786;DHT22;890;48.158;11.540;2023-03-01T18:10:22;6.50;64.80
1786;DHT22;890;48.158;11.540;2023-03-01T18:12:48;6.50;65.60
1786;DHT22;890;48.158;11.540;2023-03-01T18:15:15;6.40;65.00
1786;DHT22;890;48.158;11.540;2023-03-01T18:17:40;6.30;65.00
1786;DHT22;890;48.158;11.540;2023-03-01T18:20:07;6.20;65.20
1786;DHT22;890;48.158;11.540;2023-03-01T18:22:32;6.20;65.40
1786;DHT22;890;48.158;11.540;2023-03-01T18:24:58;6.10;65.40
1786;DHT22;890;48.158;11.540;2023-03-01T18:27:24;6.10;65.50
1786;DHT22;890;48.158;11.540;2023-03-01T18:29:50;6.00;65.80
1786;DHT22;890;48.158;11.540;2023-03-01T18:32:15;6.00;66.00
1786;DHT22;890;48.158;11.540;2023-03-01T18:34:41;6.00;66.10
1786;DHT22;890;48.158;11.540;2023-03-01T18:37:07;6.00;66.30
1786;DHT22;890;48.158;11.540;2023-03-01T18:39:32;6.00;66.50
1786;DHT22;890;48.158;11.540;2023-03-01T18:41:58;6.00;66.60
1786;DHT22;890;48.158;11.540;2023-03-01T18:44:24;6.00;66.50
1786;DHT22;890;48.158;11.540;2023-03-01T18:46:50;5.90;66.60
1786;DHT22;890;48.158;11.540;2023-03-01T18:49:17;5.90;66.80